createdAt,value
2022-11-01T00:02:01.192Z,100.00
2022-11-01T00:04:28.223Z,100.00
2022-11-01T00:06:55.457Z,100.00
2022-11-01T00:09:22.765Z,100.00
2022-11-01T00:11:49.978Z,100.00
2022-11-01T00:14:19.075Z,100.00
2022-11-01T00:16:46.408Z,100.00
2022-11-01T00:19:13.644Z,100.00
2022-11-01T00:21:40.666Z,100.00
2022-11-01T00:24:07.801Z,100.00
2022-11-01T00:26:35.483Z,100.00
2022-11-01T00:29:02.714Z,100.00
2022-11-01T00:31:29.850Z,100.00
2022-11-01T00:33:56.887Z,100.00
2022-11-01T00:36:23.972Z,100.00
2022-11-01T00:38:51.788Z,100.00
2022-11-01T00:41:20.727Z,100.00
2022-11-01T00:43:48.200Z,100.00
2022-11-01T00:46:15.987Z,100.00
2022-11-01T00:48:43.165Z,100.00
2022-11-01T00:51:10.860Z,100.00
2022-11-01T00:53:37.863Z,100.00
2022-11-01T00:56:06.649Z,100.00
2022-11-01T00:58:34.311Z,100.00
2022-11-01T01:01:01.424Z,100.00
2022-11-01T01:03:28.668Z,100.00
2022-11-01T01:05:55.898Z,100.00
2022-11-01T01:08:24.170Z,100.00
2022-11-01T01:10:51.532Z,100.00
2022-11-01T01:13:19.167Z,100.00
2022-11-01T01:15:46.787Z,100.00
2022-11-01T01:18:14.498Z,100.00
2022-11-01T01:20:41.578Z,100.00
2022-11-01T01:23:08.916Z,100.00
2022-11-01T01:25:40.134Z,100.00
2022-11-01T01:28:07.638Z,100.00
2022-11-01T01:30:34.671Z,100.00
2022-11-01T01:33:01.787Z,100.00
2022-11-01T01:35:28.851Z,100.00
2022-11-01T01:37:56.032Z,100.00
2022-11-01T01:40:23.063Z,100.00
2022-11-01T01:42:50.080Z,100.00
2022-11-01T01:45:29.139Z,100.00
2022-11-01T01:48:03.599Z,100.00
2022-11-01T01:50:42.120Z,100.00
2022-11-01T01:53:22.023Z,100.00
2022-11-01T01:55:56.476Z,100.00
2022-11-01T01:58:28.933Z,100.00
2022-11-01T02:00:56.480Z,100.00
2022-11-01T02:03:28.724Z,100.00
2022-11-01T02:06:02.676Z,100.00
2022-11-01T02:08:30.123Z,100.00
2022-11-01T02:11:01.125Z,100.00
2022-11-01T02:13:29.807Z,100.00
2022-11-01T02:16:22.698Z,100.00
2022-11-01T02:18:49.638Z,100.00
2022-11-01T02:21:31.373Z,100.00
2022-11-01T02:24:35.993Z,100.00
2022-11-01T02:27:15.393Z,100.00
2022-11-01T02:30:04.587Z,100.00
2022-11-01T02:32:44.116Z,100.00
2022-11-01T02:35:24.175Z,100.00
2022-11-01T02:38:05.621Z,100.00
2022-11-01T02:41:07.437Z,100.00
2022-11-01T02:43:46.772Z,100.00
2022-11-01T02:46:34.496Z,100.00
2022-11-01T02:49:02.789Z,100.00
2022-11-01T02:51:30.430Z,100.00
2022-11-01T02:54:01.183Z,100.00
2022-11-01T02:56:28.921Z,100.00
2022-11-01T02:58:56.377Z,100.00
2022-11-01T03:01:26.474Z,100.00
2022-11-01T03:03:57.490Z,100.00
2022-11-01T03:06:33.008Z,100.00
2022-11-01T03:09:04.658Z,100.00
2022-11-01T03:11:52.825Z,100.00
2022-11-01T03:14:22.868Z,100.00
2022-11-01T03:17:00.526Z,100.00
2022-11-01T03:19:45.744Z,100.00
2022-11-01T03:22:18.771Z,100.00
2022-11-01T03:24:52.166Z,100.00
2022-11-01T03:27:36.309Z,100.00
2022-11-01T03:30:14.064Z,100.00
2022-11-01T03:32:45.783Z,100.00
2022-11-01T03:35:18.364Z,100.00
2022-11-01T03:37:46.713Z,100.00
2022-11-01T03:40:17.188Z,100.00
2022-11-01T03:42:48.206Z,100.00
2022-11-01T03:45:20.532Z,100.00
2022-11-01T03:47:47.749Z,100.00
2022-11-01T03:50:19.171Z,100.00
2022-11-01T03:52:47.137Z,100.00
2022-11-01T03:55:19.480Z,100.00
2022-11-01T03:57:51.749Z,100.00
2022-11-01T04:00:22.892Z,100.00
2022-11-01T04:02:51.435Z,100.00
2022-11-01T04:05:20.231Z,100.00
2022-11-01T04:07:47.835Z,100.00
2022-11-01T04:10:15.336Z,100.00
2022-11-01T04:12:45.474Z,100.00
2022-11-01T04:15:31.270Z,100.00
2022-11-01T04:18:35.700Z,100.00
2022-11-01T04:21:07.092Z,100.00
2022-11-01T04:23:34.561Z,100.00
2022-11-01T04:26:02.758Z,100.00
2022-11-01T04:28:29.756Z,100.00
2022-11-01T04:30:57.204Z,100.00
2022-11-01T04:33:24.199Z,100.00
2022-11-01T04:35:51.232Z,100.00
2022-11-01T04:38:18.325Z,100.00
2022-11-01T04:40:45.376Z,100.00
2022-11-01T04:43:13.179Z,100.00
2022-11-01T04:45:40.431Z,100.00
2022-11-01T04:48:13.387Z,100.00
2022-11-01T04:50:41.786Z,100.00
2022-11-01T04:53:10.052Z,100.00
2022-11-01T04:55:37.468Z,100.00
2022-11-01T04:58:06.539Z,100.00
2022-11-01T05:00:34.223Z,100.00
2022-11-01T05:03:06.400Z,100.00
2022-11-01T05:05:35.063Z,100.00
2022-11-01T05:08:06.092Z,100.00
2022-11-01T05:10:35.028Z,100.00
2022-11-01T05:13:03.156Z,100.00
2022-11-01T05:15:30.429Z,100.00
2022-11-01T05:17:59.481Z,100.00
2022-11-01T05:20:26.575Z,100.00
2022-11-01T05:22:59.483Z,100.00
2022-11-01T05:25:27.777Z,100.00
2022-11-01T05:28:03.695Z,100.00
2022-11-01T05:30:30.993Z,100.00
2022-11-01T05:32:59.812Z,100.00
2022-11-01T05:35:28.382Z,100.00
2022-11-01T05:37:56.121Z,100.00
2022-11-01T05:40:23.425Z,100.00
2022-11-01T05:42:50.462Z,100.00
2022-11-01T05:45:17.487Z,100.00
2022-11-01T05:47:44.507Z,100.00
2022-11-01T05:50:13.413Z,100.00
2022-11-01T05:52:40.709Z,100.00
2022-11-01T05:55:08.561Z,100.00
2022-11-01T05:57:36.500Z,100.00
2022-11-01T06:00:05.302Z,100.00
2022-11-01T06:02:39.112Z,100.00
2022-11-01T06:05:06.392Z,100.00
2022-11-01T06:07:35.664Z,100.00
2022-11-01T06:10:04.065Z,100.00
2022-11-01T06:12:31.535Z,100.00
2022-11-01T06:14:58.866Z,100.00
2022-11-01T06:17:25.971Z,100.00
2022-11-01T06:19:53.042Z,100.00
2022-11-01T06:22:20.153Z,100.00
2022-11-01T06:24:47.162Z,100.00
2022-11-01T06:27:14.158Z,100.00
2022-11-01T06:29:41.162Z,100.00
2022-11-01T06:32:08.561Z,100.00
2022-11-01T06:34:36.903Z,100.00
2022-11-01T06:37:05.547Z,100.00
2022-11-01T06:39:32.558Z,100.00
2022-11-01T06:41:59.588Z,100.00
2022-11-01T06:44:26.559Z,100.00
2022-11-01T06:46:54.906Z,100.00
2022-11-01T06:49:22.228Z,100.00
2022-11-01T06:51:49.334Z,100.00
2022-11-01T06:54:16.408Z,100.00
2022-11-01T06:56:46.260Z,100.00
2022-11-01T06:59:13.562Z,100.00
2022-11-01T07:01:40.607Z,100.00
2022-11-01T07:04:07.980Z,100.00
2022-11-01T07:06:35.079Z,100.00
2022-11-01T07:09:02.139Z,100.00
2022-11-01T07:11:31.757Z,100.00
2022-11-01T07:13:59.453Z,100.00
2022-11-01T07:16:27.001Z,100.00
2022-11-01T07:18:54.153Z,100.00
2022-11-01T07:21:21.487Z,100.00
2022-11-01T07:23:48.690Z,100.00
2022-11-01T07:26:16.122Z,100.00
2022-11-01T07:28:43.121Z,100.00
2022-11-01T07:31:10.117Z,100.00
2022-11-01T07:33:37.512Z,100.00
2022-11-01T07:36:04.737Z,100.00
2022-11-01T07:38:32.334Z,100.00
2022-11-01T07:40:59.437Z,100.00
2022-11-01T07:43:26.470Z,100.00
2022-11-01T07:45:53.563Z,100.00
2022-11-01T07:48:20.717Z,100.00
2022-11-01T07:50:47.869Z,100.00
2022-11-01T07:53:17.740Z,100.00
2022-11-01T07:55:45.979Z,100.00
2022-11-01T07:58:14.343Z,100.00
2022-11-01T08:00:42.283Z,100.00
2022-11-01T08:03:14.957Z,100.00
2022-11-01T08:05:42.575Z,100.00
2022-11-01T08:08:10.423Z,100.00
2022-11-01T08:10:38.425Z,100.00
2022-11-01T08:13:07.377Z,100.00
2022-11-01T08:15:35.047Z,100.00
2022-11-01T08:18:02.963Z,100.00
2022-11-01T08:20:30.416Z,100.00
2022-11-01T08:22:57.673Z,99.92
2022-11-01T08:25:25.297Z,98.28
2022-11-01T08:27:52.300Z,96.67
2022-11-01T08:30:20.436Z,95.99
2022-11-01T08:32:47.606Z,96.42
2022-11-01T08:35:14.808Z,93.89
2022-11-01T08:37:51.984Z,94.05
2022-11-01T08:40:19.587Z,93.69
2022-11-01T08:42:48.660Z,94.12
2022-11-01T08:45:16.726Z,93.47
2022-11-01T08:47:43.875Z,91.40
2022-11-01T08:50:13.317Z,89.57
2022-11-01T08:52:41.010Z,88.04
2022-11-01T08:55:09.473Z,90.87
2022-11-01T08:57:36.829Z,90.85
2022-11-01T09:00:07.083Z,88.74
2022-11-01T09:02:34.516Z,90.29
2022-11-01T09:05:05.055Z,89.69
2022-11-01T09:07:37.063Z,88.00
2022-11-01T09:10:05.244Z,86.81
2022-11-01T09:12:32.297Z,85.77
2022-11-01T09:14:59.470Z,82.56
2022-11-01T09:17:26.603Z,83.19
2022-11-01T09:19:53.635Z,81.10
2022-11-01T09:22:20.775Z,79.49
2022-11-01T09:24:47.887Z,79.10
2022-11-01T09:27:16.167Z,79.86
2022-11-01T09:29:45.435Z,76.59
2022-11-01T09:32:15.205Z,80.79
2022-11-01T09:34:42.185Z,78.82
2022-11-01T09:37:09.346Z,79.66
2022-11-01T09:39:36.336Z,81.31
2022-11-01T09:42:10.152Z,79.28
2022-11-01T09:44:43.864Z,78.42
2022-11-01T09:47:18.374Z,77.24
2022-11-01T09:49:48.182Z,76.99
2022-11-01T09:52:23.971Z,67.29
2022-11-01T09:54:51.258Z,61.48
2022-11-01T09:57:24.671Z,59.30
2022-11-01T10:00:13.686Z,59.21
2022-11-01T10:02:52.592Z,59.43
2022-11-01T10:05:38.459Z,61.69
2022-11-01T10:08:20.405Z,60.65
2022-11-01T10:11:19.521Z,61.60
2022-11-01T10:13:59.892Z,60.56
2022-11-01T10:16:37.230Z,62.88
2022-11-01T10:19:17.458Z,61.56
2022-11-01T10:21:54.459Z,62.92
2022-11-01T10:24:40.209Z,62.34
2022-11-01T10:27:22.092Z,64.50
2022-11-01T10:30:12.094Z,63.11
2022-11-01T10:32:52.481Z,63.45
2022-11-01T10:35:29.551Z,61.54
2022-11-01T10:38:19.124Z,63.04
2022-11-01T10:41:10.415Z,63.64
2022-11-01T10:43:44.007Z,63.11
2022-11-01T10:46:19.863Z,63.61
2022-11-01T10:48:55.317Z,65.17
2022-11-01T10:51:28.004Z,63.35
2022-11-01T10:54:02.886Z,62.13
2022-11-01T10:56:41.589Z,64.84
2022-11-01T10:59:30.137Z,61.81
2022-11-01T11:02:00.217Z,63.09
2022-11-01T11:04:28.670Z,61.86
2022-11-01T11:06:56.784Z,62.21
2022-11-01T11:09:34.438Z,60.94
2022-11-01T11:12:06.476Z,62.70
2022-11-01T11:14:34.938Z,62.28
2022-11-01T11:17:03.204Z,63.46
2022-11-01T11:19:30.269Z,62.65
2022-11-01T11:21:59.084Z,61.25
2022-11-01T11:24:33.390Z,62.68
2022-11-01T11:27:03.208Z,64.63
2022-11-01T11:29:38.745Z,60.43
2022-11-01T11:32:19.868Z,57.32
2022-11-01T11:35:04.978Z,58.14
2022-11-01T11:37:34.100Z,57.96
2022-11-01T11:40:24.400Z,57.33
2022-11-01T11:42:54.283Z,56.65
2022-11-01T11:45:27.945Z,57.51
2022-11-01T11:47:57.112Z,56.58
2022-11-01T11:50:27.611Z,57.67
2022-11-01T11:53:07.671Z,57.33
2022-11-01T11:55:47.588Z,56.41
2022-11-01T11:58:20.307Z,57.05
2022-11-01T12:00:48.714Z,57.44
2022-11-01T12:03:17.375Z,60.75
2022-11-01T12:05:53.632Z,58.92
2022-11-01T12:08:49.662Z,57.62
2022-11-01T12:11:17.842Z,60.58
2022-11-01T12:13:59.203Z,58.66
2022-11-01T12:19:01.110Z,57.40
2022-11-01T12:21:41.109Z,57.69
2022-11-01T12:24:20.277Z,55.53
2022-11-01T12:26:49.053Z,54.99
2022-11-01T12:29:29.025Z,52.67
2022-11-01T12:32:01.292Z,53.00
2022-11-01T12:34:38.347Z,50.49
2022-11-01T12:37:19.207Z,52.40
2022-11-01T12:40:15.268Z,49.19
2022-11-01T12:42:50.440Z,48.78
2022-11-01T12:45:50.026Z,49.27
2022-11-01T12:48:28.105Z,51.17
2022-11-01T12:51:00.143Z,49.57
2022-11-01T12:53:34.246Z,53.68
2022-11-01T12:56:01.364Z,54.08
2022-11-01T12:58:33.496Z,56.87
2022-11-01T13:01:41.886Z,59.13
2022-11-01T13:04:23.414Z,58.79
2022-11-01T13:07:28.817Z,58.67
2022-11-01T13:10:10.328Z,59.03
2022-11-01T13:13:04.416Z,62.61
2022-11-01T13:15:41.090Z,60.68
2022-11-01T13:18:19.376Z,63.11
2022-11-01T13:21:07.185Z,61.43
2022-11-01T13:23:53.796Z,61.00
2022-11-01T13:26:24.273Z,59.72
2022-11-01T13:29:34.382Z,60.63
2022-11-01T13:32:10.629Z,62.69
2022-11-01T13:34:56.627Z,63.21
2022-11-01T13:37:47.061Z,61.11
2022-11-01T13:40:32.296Z,63.10
2022-11-01T13:43:09.782Z,62.07
2022-11-01T13:45:42.813Z,61.40
2022-11-01T13:48:15.962Z,61.85
2022-11-01T13:50:56.136Z,60.79
2022-11-01T13:53:39.211Z,62.79
2022-11-01T13:56:12.917Z,61.24
2022-11-01T13:58:40.369Z,60.38
2022-11-01T14:01:35.414Z,61.17
2022-11-01T14:04:08.655Z,61.40
2022-11-01T14:06:37.783Z,62.77
2022-11-01T14:09:23.487Z,65.63
2022-11-01T14:11:53.455Z,60.58
2022-11-01T14:14:29.597Z,60.60
2022-11-01T14:17:26.885Z,59.85
2022-11-01T14:19:56.776Z,60.83
2022-11-01T14:22:27.181Z,60.93
2022-11-01T14:25:02.848Z,60.55
2022-11-01T14:27:35.474Z,60.99
2022-11-01T14:30:12.165Z,59.87
2022-11-01T14:32:39.381Z,61.04
2022-11-01T14:35:12.674Z,59.35
2022-11-01T14:37:47.820Z,59.50
2022-11-01T14:40:46.977Z,59.56
2022-11-01T14:43:22.951Z,60.50
2022-11-01T14:45:59.309Z,59.48
2022-11-01T14:48:44.656Z,59.40
2022-11-01T14:51:30.018Z,60.26
2022-11-01T14:54:04.353Z,59.90
2022-11-01T14:56:39.790Z,59.08
2022-11-01T14:59:20.683Z,61.43
2022-11-01T15:01:50.320Z,60.33
2022-11-01T15:04:25.538Z,60.34
2022-11-01T15:06:52.699Z,60.12
2022-11-01T15:09:22.879Z,61.24
2022-11-01T15:11:53.076Z,61.35
2022-11-01T15:14:27.116Z,61.64
2022-11-01T15:16:54.297Z,60.54
2022-11-01T15:19:27.857Z,62.72
2022-11-01T15:22:01.008Z,60.86
2022-11-01T15:24:28.298Z,61.82
2022-11-01T15:26:55.407Z,61.92
2022-11-01T15:29:24.763Z,61.71
2022-11-01T15:31:58.050Z,62.46
2022-11-01T15:34:27.922Z,63.44
2022-11-01T15:36:55.519Z,63.64
2022-11-01T15:39:29.264Z,63.14
2022-11-01T15:41:57.400Z,63.37
2022-11-01T15:44:26.803Z,64.75
2022-11-01T15:46:58.461Z,64.82
2022-11-01T15:49:28.659Z,63.83
2022-11-01T15:52:05.058Z,65.22
2022-11-01T15:54:47.382Z,65.99
2022-11-01T15:57:21.143Z,65.92
2022-11-01T15:59:54.591Z,65.93
2022-11-01T16:02:37.813Z,66.36
2022-11-01T16:05:05.661Z,66.70
2022-11-01T16:07:34.285Z,67.21
2022-11-01T16:10:04.956Z,68.09
2022-11-01T16:12:36.158Z,68.03
2022-11-01T16:15:08.085Z,69.79
2022-11-01T16:17:38.579Z,70.02
2022-11-01T16:20:27.470Z,70.16
2022-11-01T16:22:55.864Z,71.43
2022-11-01T16:25:25.598Z,71.96
2022-11-01T16:27:54.626Z,73.19
2022-11-01T16:30:40.266Z,73.03
2022-11-01T16:33:19.578Z,73.36
2022-11-01T16:35:51.514Z,74.90
2022-11-01T16:38:33.499Z,74.45
2022-11-01T16:41:02.907Z,75.32
2022-11-01T16:43:35.307Z,75.55
2022-11-01T16:46:04.867Z,76.63
2022-11-01T16:48:35.737Z,76.31
2022-11-01T16:51:03.664Z,76.50
2022-11-01T16:53:31.144Z,76.44
2022-11-01T16:56:34.985Z,77.49
2022-11-01T16:58:58.325Z,78.57
2022-11-01T17:01:34.184Z,79.47
2022-11-01T17:04:02.977Z,78.85
2022-11-01T17:06:34.598Z,79.65
2022-11-01T17:09:12.558Z,80.50
2022-11-01T17:11:40.362Z,80.52
2022-11-01T17:14:07.443Z,81.76
2022-11-01T17:16:34.699Z,81.70
2022-11-01T17:19:02.330Z,81.63
2022-11-01T17:21:32.274Z,82.98
2022-11-01T17:23:59.346Z,82.70
2022-11-01T17:26:26.865Z,83.24
2022-11-01T17:28:55.079Z,84.37
2022-11-01T17:31:22.477Z,84.19
2022-11-01T17:33:49.525Z,84.79
2022-11-01T17:36:17.494Z,84.03
2022-11-01T17:38:45.445Z,85.03
2022-11-01T17:41:18.112Z,85.71
2022-11-01T17:43:45.250Z,85.12
2022-11-01T17:46:21.313Z,85.36
2022-11-01T17:48:48.310Z,86.56
2022-11-01T17:51:17.068Z,86.06
2022-11-01T17:53:44.399Z,86.21
2022-11-01T17:56:11.547Z,85.04
2022-11-01T17:58:38.815Z,85.36
2022-11-01T18:01:07.944Z,85.61
2022-11-01T18:03:35.071Z,85.98
2022-11-01T18:06:02.057Z,85.81
2022-11-01T18:08:33.373Z,84.35
2022-11-01T18:11:23.297Z,85.59
2022-11-01T18:13:53.171Z,85.10
2022-11-01T18:16:27.395Z,85.13
2022-11-01T18:19:05.563Z,84.36
2022-11-01T18:21:48.850Z,85.56
2022-11-01T18:24:22.893Z,86.00
2022-11-01T18:26:51.317Z,86.44
2022-11-01T18:29:23.830Z,86.98
2022-11-01T18:32:05.803Z,89.52
2022-11-01T18:34:56.026Z,87.64
2022-11-01T18:37:36.949Z,88.63
2022-11-01T18:40:19.076Z,87.26
2022-11-01T18:42:47.470Z,87.82
2022-11-01T18:45:19.489Z,87.89
2022-11-01T18:47:53.680Z,87.95
2022-11-01T18:50:26.115Z,87.95
2022-11-01T18:53:19.819Z,88.16
2022-11-01T18:55:50.114Z,88.95
2022-11-01T18:58:24.371Z,89.29
2022-11-01T19:01:02.597Z,90.21
2022-11-01T19:03:29.886Z,89.71
2022-11-01T19:06:10.675Z,89.30
2022-11-01T19:08:38.767Z,88.99
2022-11-01T19:11:05.891Z,89.20
2022-11-01T19:13:34.649Z,88.63
2022-11-01T19:16:02.025Z,88.26
2022-11-01T19:18:29.842Z,88.22
2022-11-01T19:20:58.838Z,88.64
2022-11-01T19:23:38.211Z,87.95
2022-11-01T19:26:30.633Z,88.56
2022-11-01T19:28:58.766Z,89.03
2022-11-01T19:31:38.681Z,88.87
2022-11-01T19:34:10.836Z,87.88
2022-11-01T19:36:41.216Z,90.37
2022-11-01T19:39:23.486Z,89.49
2022-11-01T19:41:53.121Z,91.29
2022-11-01T19:44:24.187Z,91.10
2022-11-01T19:47:16.164Z,90.89
2022-11-01T19:49:43.541Z,91.49
2022-11-01T19:52:10.662Z,89.73
2022-11-01T19:54:41.121Z,89.29
2022-11-01T19:57:32.397Z,91.46
2022-11-01T20:00:18.865Z,90.46
2022-11-01T20:02:48.648Z,89.86
2022-11-01T20:05:36.495Z,90.30
2022-11-01T20:08:15.958Z,90.32
2022-11-01T20:10:42.963Z,89.27
2022-11-01T20:13:10.004Z,89.70
2022-11-01T20:15:37.183Z,90.27
2022-11-01T20:18:04.545Z,91.01
2022-11-01T20:20:32.503Z,92.61
2022-11-01T20:23:12.969Z,92.08
2022-11-01T20:25:46.525Z,91.70
2022-11-01T20:28:13.534Z,91.28
2022-11-01T20:30:40.595Z,91.04
2022-11-01T20:33:07.713Z,91.30
2022-11-01T20:35:34.749Z,92.34
2022-11-01T20:38:01.764Z,91.00
2022-11-01T20:40:28.783Z,91.03
2022-11-01T20:42:56.776Z,91.90
2022-11-01T20:45:23.789Z,90.80
2022-11-01T20:47:51.214Z,90.48
2022-11-01T20:50:19.042Z,90.81
2022-11-01T20:52:46.307Z,92.11
2022-11-01T20:55:13.430Z,92.50
2022-11-01T20:57:40.806Z,92.54
2022-11-01T21:00:17.940Z,92.08
2022-11-01T21:02:48.338Z,93.06
2022-11-01T21:05:22.764Z,93.90
2022-11-01T21:07:54.768Z,93.17
2022-11-01T21:10:27.068Z,92.84
2022-11-01T21:12:54.260Z,92.81
2022-11-01T21:15:38.911Z,92.84
2022-11-01T21:18:12.048Z,93.37
2022-11-01T21:20:41.469Z,93.82
2022-11-01T21:23:26.389Z,94.79
2022-11-01T21:25:57.853Z,93.69
2022-11-01T21:28:34.145Z,94.79
2022-11-01T21:31:09.971Z,93.59
2022-11-01T21:33:39.380Z,94.45
2022-11-01T21:36:18.424Z,94.24
2022-11-01T21:38:59.982Z,93.98
2022-11-01T21:41:45.143Z,93.73
2022-11-01T21:44:18.064Z,93.62
2022-11-01T21:46:50.796Z,93.07
2022-11-01T21:49:24.161Z,93.65
2022-11-01T21:51:52.033Z,92.70
2022-11-01T21:54:19.089Z,92.66
2022-11-01T21:56:46.453Z,93.04
2022-11-01T21:59:13.772Z,92.69
2022-11-01T22:01:46.131Z,93.92
2022-11-01T22:04:14.897Z,93.68
2022-11-01T22:06:42.813Z,93.98
2022-11-01T22:09:10.799Z,94.07
2022-11-01T22:11:37.888Z,93.79
2022-11-01T22:14:05.524Z,94.22
2022-11-01T22:16:32.796Z,94.38
2022-11-01T22:19:00.481Z,94.19
2022-11-01T22:21:27.527Z,94.11
2022-11-01T22:23:59.655Z,94.88
2022-11-01T22:26:26.984Z,94.79
2022-11-01T22:28:54.188Z,94.04
2022-11-01T22:31:21.479Z,94.60
2022-11-01T22:33:52.887Z,94.00
2022-11-01T22:36:28.119Z,94.63
2022-11-01T22:38:57.040Z,94.27
2022-11-01T22:41:34.145Z,95.88
2022-11-01T22:44:09.909Z,95.89
2022-11-01T22:46:44.502Z,95.61
2022-11-01T22:49:28.627Z,95.60
2022-11-01T22:51:59.324Z,95.40
2022-11-01T22:54:32.771Z,95.49
2022-11-01T22:57:10.296Z,96.19
2022-11-01T22:59:42.405Z,97.05
2022-11-01T23:02:25.692Z,96.74
2022-11-01T23:05:08.193Z,97.04
2022-11-01T23:07:42.516Z,97.27
2022-11-01T23:10:29.676Z,97.29
2022-11-01T23:13:39.156Z,97.47
2022-11-01T23:16:22.073Z,96.76
2022-11-01T23:18:49.449Z,97.75
2022-11-01T23:21:17.111Z,97.99
2022-11-01T23:23:45.741Z,97.31
2022-11-01T23:26:15.070Z,97.23
2022-11-01T23:28:48.436Z,97.22
2022-11-01T23:31:16.634Z,98.01
2022-11-01T23:33:48.756Z,97.40
2022-11-01T23:36:20.377Z,98.01
2022-11-01T23:38:55.388Z,96.81
2022-11-01T23:41:27.384Z,96.93
2022-11-01T23:43:58.100Z,96.77
2022-11-01T23:46:28.234Z,97.00
2022-11-01T23:49:03.268Z,96.36
2022-11-01T23:51:31.282Z,97.56
2022-11-01T23:53:58.763Z,96.93
2022-11-01T23:56:25.915Z,96.52
2022-11-01T23:59:01.970Z,96.72
